Time;durP1;ratioP1;P1;durP2;ratioP2;P2;SDS_P1;SDS_P2;PMS_P1;PMS_P2;Temp;Humidity;BMP_temperature;BMP_pressure;BME280_temperature;BME280_humidity;BME280_pressure;Samples;Min_cycle;Max_cycle;Signal;HPM_P1;HPM_P2
2023/08/06 00:00:38;;;;;;;5.63;2.50;;;;;;;21.31;70.43;99494.94;5073152;28;20479;-65
2023/08/06 00:03:03;;;;;;;4.87;2.33;;;;;;;21.31;70.62;99492.91;5075370;28;20665;-64
2023/08/06 00:05:29;;;;;;;4.27;2.07;;;;;;;21.30;69.96;99488.41;5076596;28;20538;-64
2023/08/06 00:07:54;;;;;;;3.10;2.00;;;;;;;21.29;70.45;99492.53;5085334;28;20178;-64
2023/08/06 00:10:20;;;;;;;5.27;2.30;;;;;;;21.30;70.43;99491.28;5087068;28;20174;-65
2023/08/06 00:12:45;;;;;;;3.87;2.33;;;;;;;21.29;70.43;99486.78;5070181;28;20183;-66
2023/08/06 00:15:11;;;;;;;4.10;2.00;;;;;;;21.29;69.97;99498.25;5067857;28;20582;-64
2023/08/06 00:17:36;;;;;;;3.33;2.10;;;;;;;21.28;70.42;99493.72;5073335;28;20187;-65
2023/08/06 00:20:05;;;;;;;3.93;2.23;;;;;;;21.27;70.10;99500.72;5068095;28;20266;-65
2023/08/06 00:22:34;;;;;;;4.70;2.17;;;;;;;21.26;70.73;99490.47;5066506;28;20232;-65
2023/08/06 00:24:59;;;;;;;4.63;2.33;;;;;;;21.26;70.39;99487.59;5071658;28;20432;-65
2023/08/06 00:27:25;;;;;;;4.40;2.10;;;;;;;21.26;70.48;99489.66;5088444;28;20778;-64
2023/08/06 00:29:51;;;;;;;3.97;2.40;;;;;;;21.25;70.58;99480.22;5088120;28;20174;-65
2023/08/06 00:32:17;;;;;;;4.20;2.40;;;;;;;21.24;70.37;99481.47;5076347;28;20189;-65
2023/08/06 00:34:42;;;;;;;5.23;2.60;;;;;;;21.24;70.60;99483.53;5088008;28;20722;-65
2023/08/06 00:37:08;;;;;;;4.00;2.43;;;;;;;21.23;70.04;99482.69;5090516;28;20416;-64
2023/08/06 00:39:33;;;;;;;3.63;2.10;;;;;;;21.23;70.60;99479.81;5090447;28;20204;-65
2023/08/06 00:41:59;;;;;;;4.17;2.30;;;;;;;21.22;70.16;99478.19;5087155;28;20220;-64
2023/08/06 00:44:24;;;;;;;3.27;2.10;;;;;;;21.21;70.09;99479.44;5081431;28;20532;-65
2023/08/06 00:46:50;;;;;;;5.07;2.30;;;;;;;21.23;70.25;99476.16;5081779;28;20247;-65
2023/08/06 00:49:15;;;;;;;3.63;2.43;;;;;;;21.22;70.04;99474.53;5090623;28;20232;-65
2023/08/06 00:51:41;;;;;;;4.10;2.30;;;;;;;21.21;69.92;99461.38;5086912;28;20264;-65
2023/08/06 00:54:06;;;;;;;4.23;2.20;;;;;;;21.21;70.16;99462.22;5090890;28;20198;-63
2023/08/06 00:56:33;;;;;;;3.03;1.90;;;;;;;21.20;70.06;99466.31;5111210;28;20250;-65
2023/08/06 00:58:59;;;;;;;3.40;2.23;;;;;;;21.22;70.08;99474.53;5064103;28;20195;-65
2023/08/06 01:01:24;;;;;;;3.97;2.00;;;;;;;21.20;70.14;99463.44;5070867;28;20406;-65
2023/08/06 01:03:50;;;;;;;5.70;2.30;;;;;;;21.20;69.84;99466.31;5083518;28;20174;-65
2023/08/06 01:06:15;;;;;;;4.37;2.10;;;;;;;21.20;69.67;99471.22;5090072;28;20178;-64
2023/08/06 01:08:50;;;;;;;4.00;2.20;;;;;;;21.20;69.88;99466.31;5053492;28;20179;-65
2023/08/06 01:11:26;;;;;;;7.30;2.13;;;;;;;21.20;69.78;99456.88;5089700;28;20727;-65
2023/08/06 01:13:59;;;;;;;3.97;1.87;;;;;;;21.19;70.22;99458.13;5079322;28;20515;-65
2023/08/06 01:16:25;;;;;;;3.67;2.20;;;;;;;21.19;69.90;99458.94;5070830;28;20526;-65
2023/08/06 01:18:50;;;;;;;3.63;2.30;;;;;;;21.19;70.01;99450.34;5073396;28;20437;-65
2023/08/06 01:21:16;;;;;;;3.37;1.93;;;;;;;21.17;69.68;99449.94;5069767;28;20174;-65
2023/08/06 01:23:42;;;;;;;3.67;2.00;;;;;;;21.17;69.68;99444.19;5070348;28;20182;-63
2023/08/06 01:26:29;;;;;;;3.80;1.70;;;;;;;21.18;69.66;99439.28;5078415;28;20412;-65
2023/08/06 01:29:11;;;;;;;4.10;2.00;;;;;;;21.17;69.48;99441.31;5086912;28;20189;-65
2023/08/06 01:31:37;;;;;;;3.30;2.40;;;;;;;21.17;69.49;99437.66;5089106;28;20404;-64
2023/08/06 01:34:04;;;;;;;5.73;2.33;;;;;;;21.17;69.51;99441.31;5089846;28;20412;-65
2023/08/06 01:36:30;;;;;;;6.93;3.03;;;;;;;21.17;69.17;99437.66;5085350;28;20463;-65
2023/08/06 01:38:57;;;;;;;4.70;2.10;;;;;;;21.16;69.38;99435.97;5069809;28;20424;-65
2023/08/06 01:41:22;;;;;;;2.90;1.80;;;;;;;21.16;69.15;99438.84;5077269;28;20182;-65
2023/08/06 01:43:47;;;;;;;2.60;1.83;;;;;;;21.15;69.36;99438.06;5073811;28;20432;-64
2023/08/06 01:46:13;;;;;;;4.23;2.20;;;;;;;21.14;69.02;99442.16;5089112;28;20865;-65
2023/08/06 01:48:38;;;;;;;3.70;1.70;;;;;;;21.14;69.08;99450.78;5084390;28;20227;-64
2023/08/06 01:51:05;;;;;;;4.07;2.40;;;;;;;21.13;69.33;99443.38;5076834;28;20183;-65
2023/08/06 01:53:31;;;;;;;3.80;2.17;;;;;;;21.14;68.90;99445.03;5068944;28;20646;-65
2023/08/06 01:55:57;;;;;;;7.00;2.00;;;;;;;21.13;68.98;99446.25;5104303;28;20955;-65
2023/08/06 01:58:22;;;;;;;3.33;2.27;;;;;;;21.13;68.57;99446.25;5110922;28;20426;-64
2023/08/06 02:00:48;;;;;;;3.07;1.93;;;;;;;21.13;68.63;99431.09;5084900;28;20257;-66
2023/08/06 02:03:13;;;;;;;4.10;1.97;;;;;;;21.13;68.84;99434.78;5074198;28;20175;-65
2023/08/06 02:05:39;;;;;;;8.60;2.37;;;;;;;21.13;69.16;99436.84;5089594;28;20204;-65
2023/08/06 02:08:05;;;;;;;6.17;2.50;;;;;;;21.12;68.98;99447.50;5078249;28;20186;-65
2023/08/06 02:10:30;;;;;;;3.87;2.20;;;;;;;21.12;68.93;99440.94;5073748;28;20187;-64
2023/08/06 02:12:55;;;;;;;3.50;2.07;;;;;;;21.12;69.19;99456.09;5070257;28;20241;-65
2023/08/06 02:15:21;;;;;;;6.20;2.10;;;;;;;21.11;69.36;99445.88;5072057;28;20226;-66
2023/08/06 02:17:46;;;;;;;4.00;2.10;;;;;;;21.11;69.19;99450.78;5082057;28;20183;-64
2023/08/06 02:20:12;;;;;;;3.67;1.73;;;;;;;21.11;68.81;99463.09;5083925;28;20658;-65
2023/08/06 02:22:37;;;;;;;3.20;1.77;;;;;;;21.11;68.68;99456.50;5070189;28;20650;-65
2023/08/06 02:25:03;;;;;;;4.43;1.93;;;;;;;21.10;68.81;99449.97;5072188;28;20605;-64
2023/08/06 02:27:28;;;;;;;8.90;2.50;;;;;;;21.10;69.15;99461.47;5069775;28;20190;-65
2023/08/06 02:29:54;;;;;;;6.07;2.57;;;;;;;21.09;68.41;99459.00;5073043;28;20533;-65
2023/08/06 02:32:19;;;;;;;4.70;2.10;;;;;;;21.09;68.45;99467.63;5070358;28;20182;-64
2023/08/06 02:34:45;;;;;;;4.40;1.97;;;;;;;21.08;68.56;99461.03;5071023;28;20202;-65
2023/08/06 02:37:10;;;;;;;4.93;2.20;;;;;;;21.06;68.36;99460.66;5080219;28;20189;-65
2023/08/06 02:39:39;;;;;;;3.13;1.77;;;;;;;21.05;68.28;99450.41;5086674;28;20182;-65
2023/08/06 02:42:06;;;;;;;4.00;1.93;;;;;;;21.06;68.03;99448.34;5079808;28;20687;-65
2023/08/06 02:44:31;;;;;;;4.40;2.00;;;;;;;21.06;68.08;99442.59;5085903;28;20424;-64
2023/08/06 02:46:56;;;;;;;3.30;1.90;;;;;;;21.05;68.14;99447.53;5073877;28;21195;-66
2023/08/06 02:49:22;;;;;;;7.07;2.03;;;;;;;21.05;68.27;99447.53;5076672;28;20256;-65
2023/08/06 02:51:47;;;;;;;6.00;1.73;;;;;;;21.06;68.17;99443.44;5076386;28;20228;-65
2023/08/06 02:54:13;;;;;;;3.87;1.53;;;;;;;21.04;68.75;99443.06;5074207;28;20187;-65
2023/08/06 02:56:38;;;;;;;4.40;2.00;;;;;;;21.04;68.78;99437.31;5074013;28;20183;-64
2023/08/06 02:59:04;;;;;;;4.63;2.00;;;;;;;21.04;68.17;99440.19;5082763;28;20250;-65
2023/08/06 03:01:29;;;;;;;4.20;1.70;;;;;;;21.05;68.52;99452.47;5067965;28;20576;-65
2023/08/06 03:03:55;;;;;;;5.47;1.97;;;;;;;21.04;68.49;99447.97;5070587;28;20171;-64
2023/08/06 03:06:20;;;;;;;5.00;2.10;;;;;;;21.04;68.22;99451.66;5068701;28;20260;-65
2023/08/06 03:08:45;;;;;;;2.60;1.33;;;;;;;21.05;68.51;99458.19;5074731;28;20294;-66
2023/08/06 03:11:11;;;;;;;4.70;1.90;;;;;;;21.03;68.26;99455.75;5077494;28;20182;-64
2023/08/06 03:13:36;;;;;;;2.60;1.20;;;;;;;21.03;67.94;99455.75;5084939;28;20229;-64
2023/08/06 03:16:02;;;;;;;4.90;1.80;;;;;;;21.04;67.92;99460.28;5080019;28;20227;-65
2023/08/06 03:18:27;;;;;;;4.37;1.77;;;;;;;21.03;67.82;99450.00;5078107;28;20191;-65
2023/08/06 03:20:53;;;;;;;2.37;1.20;;;;;;;21.02;67.34;99441.84;5088277;28;20770;-65
2023/08/06 03:23:18;;;;;;;3.70;1.90;;;;;;;21.02;67.55;99436.09;5076633;28;20199;-66
2023/08/06 03:25:44;;;;;;;5.20;1.90;;;;;;;21.02;67.29;99442.63;5068790;28;20160;-65
2023/08/06 03:28:09;;;;;;;4.40;1.90;;;;;;;21.02;67.88;99453.31;5067647;28;20175;-64
2023/08/06 03:30:35;;;;;;;5.27;1.37;;;;;;;21.00;67.38;99456.59;5069707;28;20210;-66
2023/08/06 03:33:00;;;;;;;3.23;1.50;;;;;;;21.00;68.03;99445.13;5067122;28;20174;-65
2023/08/06 03:35:26;;;;;;;2.93;1.30;;;;;;;20.99;67.79;99443.50;5069666;28;20202;-65
2023/08/06 03:37:51;;;;;;;3.07;1.30;;;;;;;21.00;67.81;99442.25;5072009;28;20194;-65
2023/08/06 03:40:17;;;;;;;3.37;2.20;;;;;;;21.00;67.77;99450.84;5084914;28;20669;-66
2023/08/06 03:42:42;;;;;;;4.37;1.43;;;;;;;21.00;67.58;99447.16;5068501;28;20191;-65
2023/08/06 03:45:08;;;;;;;2.80;1.40;;;;;;;20.99;67.85;99446.34;5067255;28;20229;-65
2023/08/06 03:47:34;;;;;;;4.03;1.60;;;;;;;20.99;67.52;99454.97;5067744;28;20178;-65
2023/08/06 03:49:59;;;;;;;7.67;1.47;;;;;;;20.99;67.70;99460.72;5073352;28;20452;-64
2023/08/06 03:52:25;;;;;;;3.93;1.57;;;;;;;21.00;67.52;99450.84;5068293;28;20163;-65
2023/08/06 03:54:50;;;;;;;2.93;1.43;;;;;;;21.00;67.29;99450.03;5080772;28;20189;-65
2023/08/06 03:57:16;;;;;;;2.53;1.30;;;;;;;20.99;67.22;99457.84;5073718;28;20178;-65
2023/08/06 03:59:41;;;;;;;4.13;1.90;;;;;;;20.99;67.54;99452.09;5067397;28;20171;-66
2023/08/06 04:02:06;;;;;;;4.07;1.60;;;;;;;20.98;67.47;99447.56;5065810;28;20361;-66
2023/08/06 04:04:32;;;;;;;2.57;1.37;;;;;;;20.98;67.73;99453.31;5067420;28;20592;-66
2023/08/06 04:06:57;;;;;;;3.23;1.60;;;;;;;21.00;67.50;99455.75;5069369;28;20191;-66
2023/08/06 04:09:23;;;;;;;4.47;1.83;;;;;;;20.98;66.99;99438.16;5066989;28;20487;-64
2023/08/06 04:11:48;;;;;;;3.80;1.83;;;;;;;20.98;67.60;99441.03;5081036;28;20572;-65
2023/08/06 04:14:14;;;;;;;4.43;1.60;;;;;;;20.97;67.43;99437.34;5085184;28;20235;-65
2023/08/06 04:16:39;;;;;;;3.40;1.27;;;;;;;20.98;68.01;99438.16;5068007;28;20271;-66
2023/08/06 04:19:04;;;;;;;4.73;1.33;;;;;;;20.98;68.04;99450.44;5074077;28;20189;-65
2023/08/06 04:21:30;;;;;;;3.43;1.57;;;;;;;20.98;67.88;99438.97;5088182;28;20192;-65
2023/08/06 04:23:56;;;;;;;2.40;1.43;;;;;;;20.97;67.87;99437.34;5088078;28;20154;-65
2023/08/06 04:26:21;;;;;;;3.83;1.40;;;;;;;20.98;67.20;99435.28;5084485;28;20178;-65
2023/08/06 04:28:47;;;;;;;2.90;1.83;;;;;;;20.98;67.49;99432.41;5079444;28;20519;-65
2023/08/06 04:31:12;;;;;;;5.53;1.80;;;;;;;20.98;67.99;99435.28;5086330;28;20170;-64
2023/08/06 04:33:38;;;;;;;3.57;1.50;;;;;;;20.97;67.92;99431.59;5086093;28;20265;-65
2023/08/06 04:36:04;;;;;;;3.30;1.57;;;;;;;20.97;67.53;99431.59;5081507;28;20203;-64
2023/08/06 04:38:29;;;;;;;3.77;1.43;;;;;;;20.97;68.04;99430.78;5087590;28;20179;-65
2023/08/06 04:40:55;;;;;;;2.43;1.30;;;;;;;20.96;68.25;99438.56;5087477;28;20753;-65
2023/08/06 04:43:20;;;;;;;3.40;1.57;;;;;;;20.96;68.12;99443.47;5071185;28;20527;-66
2023/08/06 04:45:49;;;;;;;3.93;1.50;;;;;;;20.96;68.01;99444.31;5067537;28;20175;-66
2023/08/06 04:48:15;;;;;;;4.60;1.53;;;;;;;20.96;67.71;99435.69;5069447;28;20211;-65
2023/08/06 04:50:47;;;;;;;3.60;1.40;;;;;;;20.95;68.05;99442.69;5067352;28;20417;-65
2023/08/06 04:53:12;;;;;;;4.30;1.57;;;;;;;20.94;67.87;99441.06;5086556;28;20209;-65
2023/08/06 04:55:38;;;;;;;4.13;1.43;;;;;;;20.96;67.65;99444.31;5084849;28;20456;-64
2023/08/06 04:58:03;;;;;;;3.23;1.40;;;;;;;20.95;67.74;99442.69;5086188;28;20166;-65
2023/08/06 05:00:28;;;;;;;6.73;1.63;;;;;;;20.95;68.05;99448.41;5078584;28;20642;-65
2023/08/06 05:02:54;;;;;;;1.90;0.90;;;;;;;20.95;67.65;99441.84;5080034;28;20198;-65
2023/08/06 05:05:19;;;;;;;2.37;1.10;;;;;;;20.95;68.20;99448.41;5066040;28;20175;-66
2023/08/06 05:07:49;;;;;;;2.90;1.40;;;;;;;20.94;67.55;99441.06;5077760;28;20186;-65
2023/08/06 05:10:15;;;;;;;4.63;1.30;;;;;;;20.94;67.68;99451.69;5075333;28;20192;-65
2023/08/06 05:12:40;;;;;;;3.83;1.43;;;;;;;20.94;67.88;99449.66;5080245;28;20436;-65
2023/08/06 05:15:06;;;;;;;4.50;1.50;;;;;;;20.93;67.48;99459.47;5085968;28;20283;-65
2023/08/06 05:17:31;;;;;;;4.00;1.57;;;;;;;20.94;67.57;99452.53;5079164;28;20555;-64
2023/08/06 05:19:57;;;;;;;5.30;1.43;;;;;;;20.94;67.07;99457.44;5069887;28;20201;-64
2023/08/06 05:22:22;;;;;;;4.80;1.50;;;;;;;20.94;67.37;99460.31;5087649;28;20235;-64
2023/08/06 05:24:48;;;;;;;4.73;1.40;;;;;;;20.93;67.22;99462.34;5079013;28;20182;-65
2023/08/06 05:27:13;;;;;;;3.70;1.30;;;;;;;20.93;67.16;99459.47;5087826;28;20233;-65
2023/08/06 05:29:38;;;;;;;4.30;1.50;;;;;;;20.92;67.61;99460.72;5086552;28;20248;-65
2023/08/06 05:32:04;;;;;;;3.60;1.37;;;;;;;20.93;67.40;99458.69;5069735;28;20197;-65
2023/08/06 05:34:29;;;;;;;2.77;0.90;;;;;;;20.93;67.34;99462.34;5069760;28;20171;-65
2023/08/06 05:36:55;;;;;;;4.50;1.17;;;;;;;20.92;67.38;99466.47;5069990;28;20163;-64
2023/08/06 05:39:20;;;;;;;2.20;1.20;;;;;;;20.93;67.40;99467.28;5075219;28;20175;-66
2023/08/06 05:41:46;;;;;;;2.50;1.10;;;;;;;20.92;67.38;99472.19;5077196;28;20201;-66
2023/08/06 05:44:11;;;;;;;2.93;0.90;;;;;;;20.91;67.74;99476.31;5090190;28;20174;-65
2023/08/06 05:46:37;;;;;;;3.60;1.33;;;;;;;20.90;67.32;99474.69;5089782;28;20276;-65
2023/08/06 05:49:02;;;;;;;3.83;1.13;;;;;;;20.91;67.28;99467.69;5080018;28;20226;-66
2023/08/06 05:51:28;;;;;;;4.07;1.00;;;;;;;20.91;66.94;99470.56;5069421;28;20186;-66
2023/08/06 05:53:53;;;;;;;2.57;1.10;;;;;;;20.91;67.10;99473.44;5069670;28;20688;-66
2023/08/06 05:56:19;;;;;;;2.00;1.00;;;;;;;20.91;67.20;99469.75;5090053;28;20213;-65
2023/08/06 05:58:46;;;;;;;6.07;1.13;;;;;;;20.91;67.18;99475.47;5085033;28;20186;-66
2023/08/06 06:01:12;;;;;;;3.40;1.23;;;;;;;20.90;67.25;99486.16;5078648;28;20179;-66
2023/08/06 06:03:37;;;;;;;2.83;0.90;;;;;;;20.90;66.99;99474.69;5088430;28;20538;-66
2023/08/06 06:06:03;;;;;;;2.27;0.97;;;;;;;20.90;67.26;99482.47;5084951;28;20197;-66
2023/08/06 06:08:28;;;;;;;2.70;0.97;;;;;;;20.90;66.72;99491.91;5070172;28;20175;-65
2023/08/06 06:10:54;;;;;;;4.77;1.30;;;;;;;20.90;66.95;99491.06;5076178;28;20183;-66
2023/08/06 06:13:19;;;;;;;3.50;0.80;;;;;;;20.89;66.90;99490.28;5090335;28;20681;-65
2023/08/06 06:15:46;;;;;;;5.30;1.00;;;;;;;20.88;67.30;99499.25;5079079;28;20292;-66
2023/08/06 06:18:12;;;;;;;2.20;0.90;;;;;;;20.89;66.86;99486.53;5070010;28;20529;-66
2023/08/06 06:20:37;;;;;;;2.90;1.13;;;;;;;20.87;66.77;99492.69;5076394;28;20429;-66
2023/08/06 06:23:03;;;;;;;2.10;1.00;;;;;;;20.87;66.94;99492.69;5068184;28;20175;-66
2023/08/06 06:25:28;;;;;;;2.93;1.30;;;;;;;20.87;66.93;99486.94;5079231;28;20174;-66
2023/08/06 06:27:54;;;;;;;3.20;0.80;;;;;;;20.87;66.87;99504.16;5074343;28;20178;-65
2023/08/06 06:30:19;;;;;;;2.77;1.00;;;;;;;20.87;67.18;99500.50;5083089;28;20178;-64
2023/08/06 06:32:44;;;;;;;2.13;0.70;;;;;;;20.88;67.03;99502.94;5067987;28;20175;-66
2023/08/06 06:35:10;;;;;;;2.17;0.90;;;;;;;20.86;67.00;99511.16;5070276;28;20240;-66
2023/08/06 06:37:35;;;;;;;3.07;0.87;;;;;;;20.86;67.36;99508.28;5075455;28;20186;-66
2023/08/06 06:40:01;;;;;;;1.97;0.93;;;;;;;20.86;67.17;99525.50;5068504;28;20186;-65
2023/08/06 06:42:26;;;;;;;2.10;1.00;;;;;;;20.85;67.31;99529.59;5082882;28;20178;-66
2023/08/06 06:44:52;;;;;;;2.47;0.83;;;;;;;20.86;66.68;99521.78;5071542;28;20582;-65
2023/08/06 06:47:17;;;;;;;3.33;1.30;;;;;;;20.86;66.86;99519.75;5070851;28;20240;-66
2023/08/06 06:49:42;;;;;;;2.50;0.80;;;;;;;20.86;66.65;99514.00;5069397;28;20206;-66
2023/08/06 06:52:08;;;;;;;2.00;0.80;;;;;;;20.85;67.08;99509.50;5071904;28;20594;-66
2023/08/06 06:54:33;;;;;;;3.33;0.83;;;;;;;20.85;67.51;99505.81;5085251;28;20581;-66
2023/08/06 06:56:59;;;;;;;2.53;0.93;;;;;;;20.86;67.14;99516.88;5096349;28;20185;-66
2023/08/06 06:59:24;;;;;;;2.07;0.90;;;;;;;20.86;67.27;99510.31;5068958;28;20630;-66
2023/08/06 07:01:50;;;;;;;3.20;0.90;;;;;;;20.86;67.67;99511.16;5075622;28;20182;-66
2023/08/06 07:04:15;;;;;;;3.50;1.17;;;;;;;20.86;66.95;99510.31;5073708;28;20179;-66
2023/08/06 07:06:41;;;;;;;4.60;1.00;;;;;;;20.86;67.25;99513.19;5069094;28;20186;-65
2023/08/06 07:09:06;;;;;;;2.43;1.07;;;;;;;20.86;66.69;99508.28;5070823;28;20183;-66
2023/08/06 07:11:31;;;;;;;2.77;0.97;;;;;;;20.86;67.33;99508.28;5078502;28;20193;-65
2023/08/06 07:14:00;;;;;;;2.23;0.90;;;;;;;20.86;67.09;99521.78;5077896;28;20192;-66
2023/08/06 07:16:26;;;;;;;2.30;0.83;;;;;;;20.86;67.28;99513.19;5070774;28;20222;-65
2023/08/06 07:18:52;;;;;;;2.53;0.77;;;;;;;20.85;67.24;99517.28;5084258;28;20901;-66
2023/08/06 07:21:18;;;;;;;4.30;0.90;;;;;;;20.85;67.39;99518.13;5081687;28;20186;-65
2023/08/06 07:23:43;;;;;;;1.97;0.77;;;;;;;20.85;67.12;99520.16;5067797;28;20800;-66
2023/08/06 07:26:09;;;;;;;4.17;1.17;;;;;;;20.84;67.08;99522.22;5067647;28;20238;-66
2023/08/06 07:28:34;;;;;;;1.77;0.83;;;;;;;20.83;67.08;99532.03;5066338;28;20582;-65
2023/08/06 07:31:00;;;;;;;2.30;0.80;;;;;;;20.84;66.84;99536.56;5070538;28;20179;-66
2023/08/06 07:33:25;;;;;;;2.60;0.90;;;;;;;20.84;67.21;99530.00;5073567;28;20236;-66
2023/08/06 07:35:51;;;;;;;1.63;0.80;;;;;;;20.84;67.01;99533.72;5085449;28;20670;-66
2023/08/06 07:38:16;;;;;;;3.63;0.93;;;;;;;20.84;66.95;99535.75;5069164;28;20179;-66
2023/08/06 07:40:42;;;;;;;2.27;0.73;;;;;;;20.83;67.40;99534.91;5082922;28;20171;-66
2023/08/06 07:43:07;;;;;;;3.50;1.10;;;;;;;20.83;67.10;99552.13;5076759;28;20185;-66
2023/08/06 07:45:36;;;;;;;2.77;0.60;;;;;;;20.83;67.22;99549.25;5076706;28;20200;-66
2023/08/06 07:48:02;;;;;;;5.63;0.80;;;;;;;20.83;66.86;99545.59;5078683;28;20285;-66
2023/08/06 07:50:28;;;;;;;3.83;1.10;;;;;;;20.82;66.64;99541.88;5076811;28;20434;-65
2023/08/06 07:52:53;;;;;;;2.33;0.77;;;;;;;20.83;66.72;99545.59;5070995;28;20186;-65
2023/08/06 07:55:18;;;;;;;1.90;0.67;;;;;;;20.82;67.05;99541.88;5081056;28;20198;-66
2023/08/06 07:57:44;;;;;;;3.00;0.90;;;;;;;20.81;67.17;99548.88;5073235;28;20194;-65
2023/08/06 08:00:10;;;;;;;2.60;1.10;;;;;;;20.81;67.05;99554.59;5067956;28;20179;-65
2023/08/06 08:02:35;;;;;;;3.23;1.00;;;;;;;20.80;66.75;99550.09;5082274;28;20194;-66
2023/08/06 08:05:01;;;;;;;3.13;0.93;;;;;;;20.81;66.87;99545.16;5069250;28;20536;-66
2023/08/06 08:07:28;;;;;;;2.83;1.00;;;;;;;20.80;66.76;99544.38;5069529;28;20292;-66
2023/08/06 08:09:54;;;;;;;2.90;1.13;;;;;;;20.80;67.24;99552.16;5066376;28;20289;-66
2023/08/06 08:12:19;;;;;;;3.10;1.30;;;;;;;20.80;66.46;99552.97;5070734;28;20494;-66
2023/08/06 08:14:45;;;;;;;3.53;1.20;;;;;;;20.79;66.99;99554.22;5083921;28;20199;-66
2023/08/06 08:17:11;;;;;;;4.17;1.10;;;;;;;20.80;67.19;99560.75;5084496;28;20178;-66
2023/08/06 08:19:37;;;;;;;2.20;0.80;;;;;;;20.79;66.98;99559.13;5078725;28;20259;-66
2023/08/06 08:22:03;;;;;;;5.90;1.30;;;;;;;20.78;67.24;99564.03;5075096;28;21212;-66
2023/08/06 08:24:30;;;;;;;3.00;1.30;;;;;;;20.80;67.14;99563.63;5067366;28;20186;-66
2023/08/06 08:26:55;;;;;;;2.60;1.00;;;;;;;20.78;67.18;99566.91;5068073;28;21034;-66
2023/08/06 08:29:21;;;;;;;2.53;0.90;;;;;;;20.79;67.18;99565.69;5076939;28;20520;-65
2023/08/06 08:31:49;;;;;;;3.97;1.00;;;;;;;20.78;66.79;99571.84;5084932;28;20239;-66
2023/08/06 08:34:15;;;;;;;2.40;0.93;;;;;;;20.78;66.82;99572.63;5069982;28;20192;-65
2023/08/06 08:36:40;;;;;;;2.20;0.90;;;;;;;20.79;66.71;99576.34;5084818;28;20462;-66
2023/08/06 08:39:06;;;;;;;2.73;0.90;;;;;;;20.78;67.09;99583.31;5073713;28;20422;-65
2023/08/06 08:41:31;;;;;;;4.20;1.33;;;;;;;20.77;66.96;99591.09;5078122;28;20176;-66
2023/08/06 08:43:58;;;;;;;3.60;1.27;;;;;;;20.76;66.65;99583.72;5079058;28;20198;-67
2023/08/06 08:46:24;;;;;;;3.73;1.00;;;;;;;20.77;67.13;99590.28;5072249;28;20592;-66
2023/08/06 08:48:49;;;;;;;5.40;1.17;;;;;;;20.77;67.41;99590.28;5078702;28;20453;-66
2023/08/06 08:51:15;;;;;;;4.30;1.10;;;;;;;20.76;67.59;99591.50;5078088;28;20220;-65
2023/08/06 08:53:42;;;;;;;1.60;0.90;;;;;;;20.76;67.17;99574.28;5079529;28;20167;-65
2023/08/06 08:56:07;;;;;;;5.17;1.07;;;;;;;20.76;67.09;99591.50;5078293;28;20843;-66
2023/08/06 08:58:32;;;;;;;4.87;1.30;;;;;;;20.76;67.19;99588.63;5074177;28;20425;-66
2023/08/06 09:00:58;;;;;;;3.40;1.00;;;;;;;20.77;67.12;99584.56;5073140;28;20187;-66
2023/08/06 09:03:23;;;;;;;3.70;0.90;;;;;;;20.76;67.13;99591.50;5071350;28;20182;-66
2023/08/06 09:05:50;;;;;;;4.00;1.17;;;;;;;20.74;67.30;99600.53;5077762;28;20809;-65
2023/08/06 09:08:17;;;;;;;6.33;1.10;;;;;;;20.76;67.32;99597.22;5067909;28;20294;-65
2023/08/06 09:10:43;;;;;;;3.23;1.07;;;;;;;20.76;66.62;99606.66;5077587;28;20432;-66
2023/08/06 09:13:08;;;;;;;3.80;0.90;;;;;;;20.76;67.64;99605.84;5078772;28;20498;-67
2023/08/06 09:15:34;;;;;;;5.70;1.27;;;;;;;20.77;67.70;99610.38;5076695;28;20252;-68
2023/08/06 09:18:00;;;;;;;4.00;1.00;;;;;;;20.86;69.32;99616.47;5084912;28;20661;-68
2023/08/06 09:20:25;;;;;;;10.30;2.00;;;;;;;20.95;71.84;99620.59;5091308;28;20163;-68
2023/08/06 09:22:54;;;;;;;5.67;1.40;;;;;;;20.99;69.33;99635.75;5077323;28;20870;-66
2023/08/06 09:25:24;;;;;;;12.00;1.80;;;;;;;20.88;69.72;99639.84;5075792;28;20186;-66
2023/08/06 09:27:50;;;;;;;4.43;1.27;;;;;;;20.83;69.39;99646.00;5075518;28;21259;-66
2023/08/06 09:30:31;;;;;;;4.13;1.53;;;;;;;20.79;69.52;99653.78;5089236;28;20452;-66
2023/08/06 09:32:56;;;;;;;2.37;1.37;;;;;;;20.76;69.26;99658.31;5073202;28;20232;-68
2023/08/06 09:35:22;;;;;;;3.80;0.97;;;;;;;20.80;69.12;99653.38;5085205;28;20455;-67
2023/08/06 09:37:47;;;;;;;2.17;0.90;;;;;;;20.79;68.49;99662.41;5075471;28;20175;-66
2023/08/06 09:40:30;;;;;;;2.03;0.80;;;;;;;20.74;68.65;99666.53;5086435;28;20190;-66
2023/08/06 09:42:56;;;;;;;1.80;0.70;;;;;;;20.69;67.80;99669.81;5083973;28;20188;-66
2023/08/06 09:45:22;;;;;;;1.90;0.70;;;;;;;20.72;67.88;99663.22;5088950;28;20459;-67
2023/08/06 09:47:48;;;;;;;1.60;0.70;;;;;;;20.73;67.70;99670.59;5088863;28;21067;-66
2023/08/06 09:50:20;;;;;;;7.03;0.90;;;;;;;20.71;67.97;99664.47;5078192;28;20176;-67
2023/08/06 09:52:48;;;;;;;6.67;0.87;;;;;;;20.79;68.73;99679.63;5069626;28;20425;-67
2023/08/06 09:55:14;;;;;;;11.47;4.07;;;;;;;20.87;69.16;99682.06;5072130;28;20432;-65
2023/08/06 09:57:42;;;;;;;5.80;2.57;;;;;;;20.99;69.98;99690.28;5073875;28;20471;-67
2023/08/06 10:00:09;;;;;;;4.40;1.80;;;;;;;20.95;69.21;99686.59;5083080;28;20282;-67
2023/08/06 10:02:39;;;;;;;6.30;2.30;;;;;;;20.96;68.98;99696.00;5080361;28;20928;-67
2023/08/06 10:05:05;;;;;;;3.23;1.80;;;;;;;20.91;68.72;99700.13;5082491;28;20512;-68
2023/08/06 10:07:30;;;;;;;3.57;1.70;;;;;;;20.92;68.03;99696.03;5072840;28;20455;-68
2023/08/06 10:09:56;;;;;;;3.33;1.23;;;;;;;20.87;67.98;99707.09;5084115;28;20448;-68
2023/08/06 10:12:22;;;;;;;3.30;1.47;;;;;;;20.85;67.91;99723.88;5071572;28;20205;-67
2023/08/06 10:14:47;;;;;;;5.77;2.17;;;;;;;20.78;66.93;99716.09;5095622;28;20258;-65
2023/08/06 10:17:13;;;;;;;3.73;1.37;;;;;;;20.76;66.60;99721.41;5085437;28;20467;-65
2023/08/06 10:19:38;;;;;;;2.90;1.10;;;;;;;20.73;66.15;99722.22;5087723;28;20712;-66
2023/08/06 10:22:17;;;;;;;3.90;1.50;;;;;;;20.72;66.01;99726.34;5081256;28;20535;-65
2023/08/06 10:25:04;;;;;;;2.27;1.30;;;;;;;20.77;65.36;99719.38;5079477;28;20221;-65
2023/08/06 10:27:48;;;;;;;2.10;1.03;;;;;;;20.81;65.95;99720.19;5078068;28;20441;-66
2023/08/06 10:30:31;;;;;;;3.10;1.20;;;;;;;20.80;65.48;99744.38;5077366;28;20417;-66
2023/08/06 10:33:03;;;;;;;2.00;1.10;;;;;;;20.79;65.75;99726.34;5072812;28;20417;-65
2023/08/06 10:35:49;;;;;;;4.73;1.77;;;;;;;20.72;64.66;99746.41;5075606;28;21304;-66
2023/08/06 10:38:18;;;;;;;2.30;1.30;;;;;;;20.73;64.69;99744.38;5067856;28;20542;-66
2023/08/06 10:41:01;;;;;;;4.10;1.80;;;;;;;20.68;64.35;99756.25;5083900;28;20511;-66
2023/08/06 10:43:31;;;;;;;2.40;1.40;;;;;;;20.63;64.13;99756.66;5077279;28;20436;-66
2023/08/06 10:46:06;;;;;;;3.97;1.70;;;;;;;20.56;64.22;99754.59;5076308;28;20464;-64
2023/08/06 10:48:39;;;;;;;4.90;1.63;;;;;;;20.61;63.97;99759.09;5078118;28;20544;-64
2023/08/06 10:51:12;;;;;;;3.87;1.60;;;;;;;20.63;64.31;99768.94;5079214;28;20421;-64
2023/08/06 10:53:38;;;;;;;3.90;1.67;;;;;;;20.68;64.26;99768.53;5099314;28;20458;-63
2023/08/06 10:56:22;;;;;;;5.67;1.70;;;;;;;20.67;63.70;99781.25;5079784;28;20461;-63
2023/08/06 10:58:48;;;;;;;5.47;1.80;;;;;;;20.69;63.46;99781.69;5069585;28;20465;-65
2023/08/06 11:01:14;;;;;;;5.33;1.70;;;;;;;20.71;63.85;99782.06;5075969;28;21220;-65
2023/08/06 11:03:42;;;;;;;5.57;2.00;;;;;;;20.70;63.09;99789.03;5084764;28;20416;-64
2023/08/06 11:06:08;;;;;;;3.17;1.70;;;;;;;20.77;63.66;99780.44;5079819;28;20601;-64
2023/08/06 11:08:34;;;;;;;2.63;1.40;;;;;;;20.84;62.98;99786.19;5080429;28;20568;-63
2023/08/06 11:11:13;;;;;;;4.03;1.77;;;;;;;20.83;63.59;99784.53;5081844;28;20182;-65
2023/08/06 11:13:42;;;;;;;4.67;1.57;;;;;;;20.81;63.51;99775.53;5084062;28;20531;-62
2023/08/06 11:16:08;;;;;;;4.10;1.80;;;;;;;20.79;63.31;99774.28;5083802;28;20503;-64
2023/08/06 11:18:33;;;;;;;7.00;2.07;;;;;;;20.77;63.03;99791.91;5088224;28;20414;-64
2023/08/06 11:21:00;;;;;;;4.20;1.60;;;;;;;20.76;63.38;99784.53;5089668;28;20554;-64
2023/08/06 11:23:29;;;;;;;6.23;2.20;;;;;;;20.77;63.48;99783.31;5089051;28;20189;-64
2023/08/06 11:25:58;;;;;;;2.67;1.50;;;;;;;20.77;63.75;99789.03;5092791;28;20432;-64
2023/08/06 11:28:24;;;;;;;4.50;2.00;;;;;;;20.77;64.17;99796.84;5090882;28;20453;-64
2023/08/06 11:30:50;;;;;;;4.77;1.80;;;;;;;20.78;64.15;99802.16;5087608;28;20413;-64